sensor_id;sensor_type;location;lat;lon;timestamp;pressure;altitude;pressure_sealevel;temperature;humidity
61086;BME280;46967;48.876;2.136;2024-03-23T00:56:04;101372.72;;;28.78;22.12
61086;BME280;46967;48.876;2.136;2024-03-23T00:58:30;101375.91;;;28.36;22.70
61086;BME280;46967;48.876;2.136;2024-03-23T01:00:55;101370.06;;;28.50;22.95
61086;BME280;46967;48.876;2.136;2024-03-23T01:03:20;101373.88;;;28.48;22.67
61086;BME280;46967;48.876;2.136;2024-03-23T01:05:46;101365.75;;;28.12;22.84
61086;BME280;46967;48.876;2.136;2024-03-23T01:08:11;101372.84;;;27.93;23.45
61086;BME280;46967;48.876;2.136;2024-03-23T01:10:36;101371.88;;;28.50;22.94
61086;BME280;46967;48.876;2.136;2024-03-23T01:13:02;101380.78;;;27.26;23.82
61086;BME280;46967;48.876;2.136;2024-03-23T01:15:27;101372.88;;;27.74;23.30
61086;BME280;46967;48.876;2.136;2024-03-23T01:17:53;101371.25;;;27.63;23.51
61086;BME280;46967;48.876;2.136;2024-03-23T01:20:18;101374.03;;;26.93;24.30
61086;BME280;46967;48.876;2.136;2024-03-23T01:22:43;101374.31;;;26.90;24.81
61086;BME280;46967;48.876;2.136;2024-03-23T01:25:09;101377.31;;;27.93;23.43
61086;BME280;46967;48.876;2.136;2024-03-23T01:27:34;101389.19;;;28.18;22.84
61086;BME280;46967;48.876;2.136;2024-03-23T01:29:59;101371.66;;;27.68;23.24
61086;BME280;46967;48.876;2.136;2024-03-23T01:32:25;101376.97;;;26.90;24.50
61086;BME280;46967;48.876;2.136;2024-03-23T01:34:50;101375.31;;;26.79;24.41
61086;BME280;46967;48.876;2.136;2024-03-23T01:37:15;101378.69;;;27.20;23.95
61086;BME280;46967;48.876;2.136;2024-03-23T01:39:41;101379.50;;;27.70;23.38
61086;BME280;46967;48.876;2.136;2024-03-23T01:42:06;101379.53;;;27.60;23.53
61086;BME280;46967;48.876;2.136;2024-03-23T01:44:31;101385.13;;;27.67;23.14
61086;BME280;46967;48.876;2.136;2024-03-23T01:46:57;101384.59;;;26.54;24.64
61086;BME280;46967;48.876;2.136;2024-03-23T01:49:22;101384.88;;;26.51;24.55
61086;BME280;46967;48.876;2.136;2024-03-23T01:51:47;101383.72;;;27.04;23.93
61086;BME280;46967;48.876;2.136;2024-03-23T01:54:13;101383.19;;;27.49;23.25
61086;BME280;46967;48.876;2.136;2024-03-23T01:56:39;101388.03;;;26.75;23.84
61086;BME280;46967;48.876;2.136;2024-03-23T01:59:05;101392.13;;;26.99;23.60
61086;BME280;46967;48.876;2.136;2024-03-23T02:01:37;101386.56;;;27.32;23.41
61086;BME280;46967;48.876;2.136;2024-03-23T02:04:02;101390.13;;;26.00;25.11
61086;BME280;46967;48.876;2.136;2024-03-23T02:06:28;101395.88;;;26.77;24.26
61086;BME280;46967;48.876;2.136;2024-03-23T02:08:56;101389.19;;;26.01;24.91
61086;BME280;46967;48.876;2.136;2024-03-23T02:11:22;101395.66;;;27.09;23.66
61086;BME280;46967;48.876;2.136;2024-03-23T02:13:47;101393.41;;;27.54;23.02
61086;BME280;46967;48.876;2.136;2024-03-23T02:16:12;101402.94;;;27.46;22.89
61086;BME280;46967;48.876;2.136;2024-03-23T02:18:40;101403.09;;;27.06;23.52
61086;BME280;46967;48.876;2.136;2024-03-23T02:21:06;101411.06;;;26.46;24.08
61086;BME280;46967;48.876;2.136;2024-03-23T02:23:31;101405.16;;;26.92;23.30
61086;BME280;46967;48.876;2.136;2024-03-23T02:25:56;101403.38;;;27.32;22.77
61086;BME280;46967;48.876;2.136;2024-03-23T02:28:22;101407.00;;;26.61;23.75
61086;BME280;46967;48.876;2.136;2024-03-23T02:30:50;101400.50;;;25.82;24.02
61086;BME280;46967;48.876;2.136;2024-03-23T02:33:15;101399.72;;;25.28;24.55
61086;BME280;46967;48.876;2.136;2024-03-23T02:35:41;101412.59;;;26.48;23.51
61086;BME280;46967;48.876;2.136;2024-03-23T02:38:06;101413.94;;;26.33;23.08
61086;BME280;46967;48.876;2.136;2024-03-23T02:40:31;101408.97;;;26.59;23.11
61086;BME280;46967;48.876;2.136;2024-03-23T02:42:57;101413.50;;;26.28;23.21
61086;BME280;46967;48.876;2.136;2024-03-23T02:45:22;101403.75;;;25.86;23.47
61086;BME280;46967;48.876;2.136;2024-03-23T02:47:47;101417.28;;;26.25;23.07
61086;BME280;46967;48.876;2.136;2024-03-23T02:50:18;101409.00;;;25.55;23.87
61086;BME280;46967;48.876;2.136;2024-03-23T02:52:43;101423.66;;;25.71;23.43
61086;BME280;46967;48.876;2.136;2024-03-23T02:55:08;101417.31;;;25.62;23.64
61086;BME280;46967;48.876;2.136;2024-03-23T02:57:34;101416.19;;;25.64;23.56
61086;BME280;46967;48.876;2.136;2024-03-23T02:59:59;101416.78;;;26.41;22.52
61086;BME280;46967;48.876;2.136;2024-03-23T03:02:24;101418.34;;;26.13;23.09
61086;BME280;46967;48.876;2.136;2024-03-23T03:04:50;101427.50;;;25.99;22.96
61086;BME280;46967;48.876;2.136;2024-03-23T03:07:15;101425.50;;;26.63;22.28
61086;BME280;46967;48.876;2.136;2024-03-23T03:09:40;101423.34;;;26.37;22.37
61086;BME280;46967;48.876;2.136;2024-03-23T03:12:06;101426.03;;;25.53;23.62
61086;BME280;46967;48.876;2.136;2024-03-23T03:14:32;101432.13;;;24.88;24.25
61086;BME280;46967;48.876;2.136;2024-03-23T03:16:57;101420.28;;;25.68;23.45
61086;BME280;46967;48.876;2.136;2024-03-23T03:19:22;101440.09;;;25.00;24.15
61086;BME280;46967;48.876;2.136;2024-03-23T03:21:48;101435.34;;;26.00;22.91
61086;BME280;46967;48.876;2.136;2024-03-23T03:24:13;101430.59;;;26.04;22.89
61086;BME280;46967;48.876;2.136;2024-03-23T03:26:38;101427.53;;;26.09;22.44
61086;BME280;46967;48.876;2.136;2024-03-23T03:29:04;101420.25;;;26.72;22.08
61086;BME280;46967;48.876;2.136;2024-03-23T03:31:29;101418.63;;;26.50;22.30
61086;BME280;46967;48.876;2.136;2024-03-23T03:33:54;101429.84;;;26.54;21.89
61086;BME280;46967;48.876;2.136;2024-03-23T03:36:20;101433.88;;;24.78;24.14
61086;BME280;46967;48.876;2.136;2024-03-23T03:38:46;101441.97;;;26.06;22.49
61086;BME280;46967;48.876;2.136;2024-03-23T03:41:11;101439.56;;;26.34;22.16
61086;BME280;46967;48.876;2.136;2024-03-23T03:43:36;101447.50;;;25.82;22.55
61086;BME280;46967;48.876;2.136;2024-03-23T03:46:03;101446.03;;;26.10;22.51
61086;BME280;46967;48.876;2.136;2024-03-23T03:48:28;101456.16;;;25.63;22.81
61086;BME280;46967;48.876;2.136;2024-03-23T03:50:53;101458.56;;;26.60;21.90
61086;BME280;46967;48.876;2.136;2024-03-23T03:53:19;101461.53;;;26.05;22.33
61086;BME280;46967;48.876;2.136;2024-03-23T03:55:45;101455.97;;;26.08;22.23
61086;BME280;46967;48.876;2.136;2024-03-23T03:58:10;101459.44;;;26.09;22.26
61086;BME280;46967;48.876;2.136;2024-03-23T04:00:35;101457.09;;;25.94;22.44
61086;BME280;46967;48.876;2.136;2024-03-23T04:03:01;101461.53;;;25.84;22.52
61086;BME280;46967;48.876;2.136;2024-03-23T04:05:26;101456.69;;;26.41;21.79
61086;BME280;46967;48.876;2.136;2024-03-23T04:07:52;101460.34;;;25.98;22.52
61086;BME280;46967;48.876;2.136;2024-03-23T04:10:17;101464.56;;;26.21;21.95
61086;BME280;46967;48.876;2.136;2024-03-23T04:12:43;101466.44;;;26.31;22.13
61086;BME280;46967;48.876;2.136;2024-03-23T04:15:09;101466.44;;;26.31;22.13
61086;BME280;46967;48.876;2.136;2024-03-23T04:17:34;101482.94;;;25.50;23.13
61086;BME280;46967;48.876;2.136;2024-03-23T04:20:00;101468.19;;;25.78;22.98
61086;BME280;46967;48.876;2.136;2024-03-23T04:22:26;101460.88;;;26.13;22.16
61086;BME280;46967;48.876;2.136;2024-03-23T04:24:56;101463.75;;;26.00;22.45
61086;BME280;46967;48.876;2.136;2024-03-23T04:27:22;101468.38;;;25.65;22.92
61086;BME280;46967;48.876;2.136;2024-03-23T04:29:51;101471.38;;;25.93;22.26
61086;BME280;46967;48.876;2.136;2024-03-23T04:32:17;101466.41;;;25.67;22.67
61086;BME280;46967;48.876;2.136;2024-03-23T04:34:43;101473.63;;;25.77;22.75
61086;BME280;46967;48.876;2.136;2024-03-23T04:37:09;101468.06;;;25.80;22.53
61086;BME280;46967;48.876;2.136;2024-03-23T04:39:35;101472.22;;;25.73;22.61
61086;BME280;46967;48.876;2.136;2024-03-23T04:42:01;101468.22;;;25.99;22.42
61086;BME280;46967;48.876;2.136;2024-03-23T04:44:28;101480.06;;;25.74;22.35
61086;BME280;46967;48.876;2.136;2024-03-23T04:46:53;101482.44;;;24.90;23.48
61086;BME280;46967;48.876;2.136;2024-03-23T04:49:18;101486.41;;;24.50;23.89
61086;BME280;46967;48.876;2.136;2024-03-23T04:51:44;101485.94;;;25.57;22.72
61086;BME280;46967;48.876;2.136;2024-03-23T04:54:14;101492.34;;;24.99;23.48
61086;BME280;46967;48.876;2.136;2024-03-23T04:56:40;101489.25;;;24.71;23.77
61086;BME280;46967;48.876;2.136;2024-03-23T04:59:05;101495.91;;;25.21;23.29
61086;BME280;46967;48.876;2.136;2024-03-23T05:01:33;101500.72;;;25.27;22.87
61086;BME280;46967;48.876;2.136;2024-03-23T05:03:59;101505.84;;;25.30;22.73
61086;BME280;46967;48.876;2.136;2024-03-23T05:06:25;101498.34;;;25.12;23.06
61086;BME280;46967;48.876;2.136;2024-03-23T05:08:51;101507.63;;;24.39;23.73
61086;BME280;46967;48.876;2.136;2024-03-23T05:11:16;101512.16;;;24.95;23.32
61086;BME280;46967;48.876;2.136;2024-03-23T05:13:42;101504.41;;;25.03;22.96
61086;BME280;46967;48.876;2.136;2024-03-23T05:16:07;101503.59;;;24.57;23.53
61086;BME280;46967;48.876;2.136;2024-03-23T05:18:33;101516.56;;;25.06;22.98
61086;BME280;46967;48.876;2.136;2024-03-23T05:20:59;101513.44;;;25.01;23.01
61086;BME280;46967;48.876;2.136;2024-03-23T05:23:25;101519.59;;;25.12;22.81
61086;BME280;46967;48.876;2.136;2024-03-23T05:25:50;101515.75;;;24.94;23.03
61086;BME280;46967;48.876;2.136;2024-03-23T05:28:17;101515.13;;;25.13;22.66
61086;BME280;46967;48.876;2.136;2024-03-23T05:30:42;101528.84;;;25.41;22.56
61086;BME280;46967;48.876;2.136;2024-03-23T05:33:08;101531.31;;;25.10;22.75
61086;BME280;46967;48.876;2.136;2024-03-23T05:35:33;101535.66;;;24.88;22.88
61086;BME280;46967;48.876;2.136;2024-03-23T05:37:58;101538.38;;;23.95;24.25
61086;BME280;46967;48.876;2.136;2024-03-23T05:40:26;101538.00;;;24.23;23.75
61086;BME280;46967;48.876;2.136;2024-03-23T05:42:51;101537.47;;;24.07;24.21
61086;BME280;46967;48.876;2.136;2024-03-23T05:45:21;101526.63;;;24.57;23.44
61086;BME280;46967;48.876;2.136;2024-03-23T05:47:47;101535.97;;;24.38;23.59
61086;BME280;46967;48.876;2.136;2024-03-23T05:50:13;101535.03;;;24.51;23.42
61086;BME280;46967;48.876;2.136;2024-03-23T05:52:39;101525.56;;;23.88;24.26
61086;BME280;46967;48.876;2.136;2024-03-23T05:55:05;101533.59;;;23.51;24.57
61086;BME280;46967;48.876;2.136;2024-03-23T05:57:31;101536.34;;;24.45;23.82
61086;BME280;46967;48.876;2.136;2024-03-23T05:59:56;101528.94;;;24.73;23.43
61086;BME280;46967;48.876;2.136;2024-03-23T06:02:23;101533.47;;;24.71;23.22
61086;BME280;46967;48.876;2.136;2024-03-23T06:04:49;101540.38;;;24.62;23.47
61086;BME280;46967;48.876;2.136;2024-03-23T06:07:14;101540.72;;;24.80;23.14
61086;BME280;46967;48.876;2.136;2024-03-23T06:09:42;101550.38;;;24.58;23.35
61086;BME280;46967;48.876;2.136;2024-03-23T06:12:08;101551.09;;;24.61;23.50
61086;BME280;46967;48.876;2.136;2024-03-23T06:14:34;101568.81;;;25.17;22.71
61086;BME280;46967;48.876;2.136;2024-03-23T06:17:00;101568.34;;;25.23;22.89
61086;BME280;46967;48.876;2.136;2024-03-23T06:19:27;101576.94;;;25.38;22.56
61086;BME280;46967;48.876;2.136;2024-03-23T06:21:53;101570.56;;;24.37;23.61
61086;BME280;46967;48.876;2.136;2024-03-23T06:24:21;101576.91;;;25.15;22.91
61086;BME280;46967;48.876;2.136;2024-03-23T06:26:46;101574.63;;;24.99;22.77
61086;BME280;46967;48.876;2.136;2024-03-23T06:29:12;101581.13;;;25.40;22.43
61086;BME280;46967;48.876;2.136;2024-03-23T06:31:37;101579.94;;;24.65;23.35
61086;BME280;46967;48.876;2.136;2024-03-23T06:34:02;101582.06;;;25.62;22.11
61086;BME280;46967;48.876;2.136;2024-03-23T06:36:27;101586.88;;;25.68;22.25
61086;BME280;46967;48.876;2.136;2024-03-23T06:38:53;101585.41;;;25.96;21.73
61086;BME280;46967;48.876;2.136;2024-03-23T06:41:19;101595.88;;;26.20;21.73
61086;BME280;46967;48.876;2.136;2024-03-23T06:43:44;101586.06;;;26.63;21.64
61086;BME280;46967;48.876;2.136;2024-03-23T06:46:10;101590.16;;;26.67;21.10
61086;BME280;46967;48.876;2.136;2024-03-23T06:48:35;101595.63;;;26.24;21.73
61086;BME280;46967;48.876;2.136;2024-03-23T06:51:00;101598.50;;;25.99;21.74
61086;BME280;46967;48.876;2.136;2024-03-23T06:53:25;101601.28;;;25.98;22.00
61086;BME280;46967;48.876;2.136;2024-03-23T06:55:52;101618.22;;;23.16;25.12
61086;BME280;46967;48.876;2.136;2024-03-23T06:58:23;101626.88;;;24.99;23.47
61086;BME280;46967;48.876;2.136;2024-03-23T07:00:49;101639.44;;;24.14;23.40
61086;BME280;46967;48.876;2.136;2024-03-23T07:03:15;101622.63;;;24.73;22.43
61086;BME280;46967;48.876;2.136;2024-03-23T07:05:40;101620.59;;;24.88;21.82
61086;BME280;46967;48.876;2.136;2024-03-23T07:08:06;101616.75;;;25.04;22.11
61086;BME280;46967;48.876;2.136;2024-03-23T07:10:32;101613.97;;;25.05;21.89
61086;BME280;46967;48.876;2.136;2024-03-23T07:12:57;101615.50;;;24.27;22.95
61086;BME280;46967;48.876;2.136;2024-03-23T07:15:22;101613.47;;;24.42;23.50
61086;BME280;46967;48.876;2.136;2024-03-23T07:17:48;101625.44;;;25.17;22.80
61086;BME280;46967;48.876;2.136;2024-03-23T07:20:14;101613.38;;;25.13;22.95
61086;BME280;46967;48.876;2.136;2024-03-23T07:22:39;101610.19;;;25.64;22.78
61086;BME280;46967;48.876;2.136;2024-03-23T07:25:05;101607.59;;;25.85;22.78
61086;BME280;46967;48.876;2.136;2024-03-23T07:27:30;101611.13;;;25.75;23.02
61086;BME280;46967;48.876;2.136;2024-03-23T07:29:56;101615.44;;;25.98;22.66
61086;BME280;46967;48.876;2.136;2024-03-23T07:32:21;101607.47;;;25.87;23.46
61086;BME280;46967;48.876;2.136;2024-03-23T07:34:46;101604.97;;;25.63;23.36
61086;BME280;46967;48.876;2.136;2024-03-23T07:37:12;101592.53;;;25.75;23.03
61086;BME280;46967;48.876;2.136;2024-03-23T07:39:39;101584.47;;;25.65;22.80
61086;BME280;46967;48.876;2.136;2024-03-23T07:42:04;101591.72;;;26.28;22.67
61086;BME280;46967;48.876;2.136;2024-03-23T07:44:30;101598.91;;;25.17;22.91
61086;BME280;46967;48.876;2.136;2024-03-23T07:46:55;101591.22;;;25.58;22.64
61086;BME280;46967;48.876;2.136;2024-03-23T07:49:21;101593.34;;;25.43;22.81
61086;BME280;46967;48.876;2.136;2024-03-23T07:51:46;101591.41;;;25.34;22.46
61086;BME280;46967;48.876;2.136;2024-03-23T07:54:11;101596.53;;;24.56;23.37
61086;BME280;46967;48.876;2.136;2024-03-23T07:56:37;101590.69;;;24.98;23.10
61086;BME280;46967;48.876;2.136;2024-03-23T07:59:02;101591.44;;;25.66;22.52
61086;BME280;46967;48.876;2.136;2024-03-23T08:01:28;101599.28;;;26.11;21.99
61086;BME280;46967;48.876;2.136;2024-03-23T08:03:54;101597.66;;;25.55;22.15
61086;BME280;46967;48.876;2.136;2024-03-23T08:06:20;101600.09;;;25.24;22.77
61086;BME280;46967;48.876;2.136;2024-03-23T08:08:50;101607.22;;;24.43;23.41
61086;BME280;46967;48.876;2.136;2024-03-23T08:11:18;101597.28;;;24.58;23.38
61086;BME280;46967;48.876;2.136;2024-03-23T08:13:45;101606.94;;;24.70;23.01
61086;BME280;46967;48.876;2.136;2024-03-23T08:16:10;101602.47;;;24.71;23.20
61086;BME280;46967;48.876;2.136;2024-03-23T08:18:36;101607.81;;;25.27;22.78
61086;BME280;46967;48.876;2.136;2024-03-23T08:21:03;101613.19;;;25.60;22.28
61086;BME280;46967;48.876;2.136;2024-03-23T08:23:31;101611.19;;;25.52;22.58
61086;BME280;46967;48.876;2.136;2024-03-23T08:26:00;101615.13;;;26.13;21.73
61086;BME280;46967;48.876;2.136;2024-03-23T08:28:26;101606.41;;;25.78;22.06
61086;BME280;46967;48.876;2.136;2024-03-23T08:30:55;101608.22;;;25.78;22.17
61086;BME280;46967;48.876;2.136;2024-03-23T08:33:22;101619.38;;;24.70;23.14
61086;BME280;46967;48.876;2.136;2024-03-23T08:36:09;101611.66;;;24.67;23.18
61086;BME280;46967;48.876;2.136;2024-03-23T08:38:35;101604.94;;;24.50;23.29
61086;BME280;46967;48.876;2.136;2024-03-23T08:41:02;101607.75;;;25.73;21.98
61086;BME280;46967;48.876;2.136;2024-03-23T08:43:29;101606.56;;;26.30;21.45
61086;BME280;46967;48.876;2.136;2024-03-23T08:46:11;101611.47;;;25.81;21.81
61086;BME280;46967;48.876;2.136;2024-03-23T08:48:38;101616.06;;;25.79;21.83
61086;BME280;46967;48.876;2.136;2024-03-23T08:51:07;101615.56;;;25.85;21.76
61086;BME280;46967;48.876;2.136;2024-03-23T08:53:34;101631.31;;;25.66;21.93
61086;BME280;46967;48.876;2.136;2024-03-23T08:56:00;101620.13;;;25.95;21.47
61086;BME280;46967;48.876;2.136;2024-03-23T08:58:27;101623.19;;;26.23;21.08
61086;BME280;46967;48.876;2.136;2024-03-23T09:00:53;101621.59;;;26.20;21.43
61086;BME280;46967;48.876;2.136;2024-03-23T09:03:24;101616.50;;;26.28;21.20
61086;BME280;46967;48.876;2.136;2024-03-23T09:05:50;101622.41;;;25.56;21.53
61086;BME280;46967;48.876;2.136;2024-03-23T09:08:15;101615.19;;;25.90;21.44
61086;BME280;46967;48.876;2.136;2024-03-23T09:10:41;101624.25;;;25.88;21.10
61086;BME280;46967;48.876;2.136;2024-03-23T09:13:07;101622.41;;;25.10;22.42
61086;BME280;46967;48.876;2.136;2024-03-23T09:15:37;101623.16;;;25.12;22.23
61086;BME280;46967;48.876;2.136;2024-03-23T09:18:03;101624.66;;;24.34;23.58
61086;BME280;46967;48.876;2.136;2024-03-23T09:20:32;101624.00;;;24.90;23.15
61086;BME280;46967;48.876;2.136;2024-03-23T09:22:58;101648.47;;;25.17;23.69
61086;BME280;46967;48.876;2.136;2024-03-23T09:25:23;101649.00;;;24.28;25.59
61086;BME280;46967;48.876;2.136;2024-03-23T09:27:49;101649.06;;;24.39;24.42
61086;BME280;46967;48.876;2.136;2024-03-23T09:30:15;101628.88;;;24.61;24.13
61086;BME280;46967;48.876;2.136;2024-03-23T09:32:44;101622.03;;;25.26;23.52
61086;BME280;46967;48.876;2.136;2024-03-23T09:35:10;101622.72;;;25.74;23.21
61086;BME280;46967;48.876;2.136;2024-03-23T09:37:36;101619.28;;;25.51;23.34
61086;BME280;46967;48.876;2.136;2024-03-23T09:40:02;101621.91;;;25.62;22.87
61086;BME280;46967;48.876;2.136;2024-03-23T09:42:28;101612.66;;;25.77;22.79
61086;BME280;46967;48.876;2.136;2024-03-23T09:44:54;101611.47;;;26.98;22.26
61086;BME280;46967;48.876;2.136;2024-03-23T09:47:23;101599.63;;;26.18;22.70
61086;BME280;46967;48.876;2.136;2024-03-23T09:49:50;101596.63;;;26.53;21.52
61086;BME280;46967;48.876;2.136;2024-03-23T09:52:15;101585.03;;;26.12;22.18
61086;BME280;46967;48.876;2.136;2024-03-23T09:54:40;101593.78;;;26.45;21.95
61086;BME280;46967;48.876;2.136;2024-03-23T09:57:05;101584.75;;;26.57;22.17
61086;BME280;46967;48.876;2.136;2024-03-23T09:59:32;101583.59;;;26.71;21.72
61086;BME280;46967;48.876;2.136;2024-03-23T10:01:58;101577.22;;;27.24;20.70
61086;BME280;46967;48.876;2.136;2024-03-23T10:04:40;101588.53;;;27.77;20.62
61086;BME280;46967;48.876;2.136;2024-03-23T10:07:14;101578.16;;;26.73;21.50
61086;BME280;46967;48.876;2.136;2024-03-23T10:09:40;101565.16;;;26.37;21.27
61086;BME280;46967;48.876;2.136;2024-03-23T10:12:13;101566.88;;;26.90;21.40
61086;BME280;46967;48.876;2.136;2024-03-23T10:14:42;101558.38;;;27.86;20.34
61086;BME280;46967;48.876;2.136;2024-03-23T10:17:16;101558.38;;;27.76;19.76
61086;BME280;46967;48.876;2.136;2024-03-23T10:19:48;101569.19;;;27.84;19.64
61086;BME280;46967;48.876;2.136;2024-03-23T10:22:22;101564.16;;;28.01;19.63
61086;BME280;46967;48.876;2.136;2024-03-23T10:24:48;101550.25;;;27.68;19.67
61086;BME280;46967;48.876;2.136;2024-03-23T10:27:18;101549.91;;;28.40;19.23
61086;BME280;46967;48.876;2.136;2024-03-23T10:29:48;101549.28;;;28.65;18.44
61086;BME280;46967;48.876;2.136;2024-03-23T10:32:15;101551.28;;;27.26;19.67
61086;BME280;46967;48.876;2.136;2024-03-23T10:34:41;101547.13;;;28.22;18.26
61086;BME280;46967;48.876;2.136;2024-03-23T10:37:07;101548.53;;;27.77;18.94
61086;BME280;46967;48.876;2.136;2024-03-23T10:39:37;101548.91;;;27.23;18.97
61086;BME280;46967;48.876;2.136;2024-03-23T10:42:04;101520.97;;;27.08;18.61
61086;BME280;46967;48.876;2.136;2024-03-23T10:44:31;101531.28;;;27.81;18.54
61086;BME280;46967;48.876;2.136;2024-03-23T10:47:03;101520.22;;;27.95;17.90
61086;BME280;46967;48.876;2.136;2024-03-23T10:49:29;101518.81;;;27.72;18.09
61086;BME280;46967;48.876;2.136;2024-03-23T10:51:57;101511.38;;;27.65;18.08
61086;BME280;46967;48.876;2.136;2024-03-23T10:54:24;101513.19;;;27.75;17.71
61086;BME280;46967;48.876;2.136;2024-03-23T10:59:31;101504.91;;;27.48;17.67
61086;BME280;46967;48.876;2.136;2024-03-23T11:01:58;101499.56;;;27.97;17.74
61086;BME280;46967;48.876;2.136;2024-03-23T11:04:35;101486.50;;;27.84;17.90
61086;BME280;46967;48.876;2.136;2024-03-23T11:07:01;101501.41;;;27.87;17.50
61086;BME280;46967;48.876;2.136;2024-03-23T11:09:43;101499.78;;;26.97;18.94
61086;BME280;46967;48.876;2.136;2024-03-23T11:12:25;101487.25;;;28.99;17.30
61086;BME280;46967;48.876;2.136;2024-03-23T11:15:00;101487.25;;;29.27;16.38
61086;BME280;46967;48.876;2.136;2024-03-23T11:17:26;101488.50;;;27.43;17.62
61086;BME280;46967;48.876;2.136;2024-03-23T11:19:59;101485.81;;;28.02;17.21
61086;BME280;46967;48.876;2.136;2024-03-23T11:25:26;101472.75;;;26.30;18.64
61086;BME280;46967;48.876;2.136;2024-03-23T11:27:53;101471.66;;;27.82;17.38
61086;BME280;46967;48.876;2.136;2024-03-23T11:30:20;101463.50;;;27.74;17.02
61086;BME280;46967;48.876;2.136;2024-03-23T11:32:48;101456.75;;;25.99;17.96
61086;BME280;46967;48.876;2.136;2024-03-23T11:35:33;101464.94;;;25.54;18.49
61086;BME280;46967;48.876;2.136;2024-03-23T11:38:13;101461.66;;;28.04;17.18
61086;BME280;46967;48.876;2.136;2024-03-23T11:40:45;101458.47;;;27.71;16.35
61086;BME280;46967;48.876;2.136;2024-03-23T11:43:17;101466.88;;;27.86;16.51
61086;BME280;46967;48.876;2.136;2024-03-23T11:45:45;101457.09;;;27.37;16.94
61086;BME280;46967;48.876;2.136;2024-03-23T11:48:11;101452.41;;;27.88;16.63
61086;BME280;46967;48.876;2.136;2024-03-23T11:50:42;101439.31;;;26.68;17.19
61086;BME280;46967;48.876;2.136;2024-03-23T11:58:13;101425.75;;;26.09;17.58
61086;BME280;46967;48.876;2.136;2024-03-23T12:00:39;101425.00;;;26.69;17.31
61086;BME280;46967;48.876;2.136;2024-03-23T12:03:05;101425.13;;;27.57;16.92
61086;BME280;46967;48.876;2.136;2024-03-23T12:05:31;101418.63;;;27.59;16.47
61086;BME280;46967;48.876;2.136;2024-03-23T12:08:35;101403.09;;;27.35;16.10
61086;BME280;46967;48.876;2.136;2024-03-23T12:13:37;101403.34;;;27.03;16.56
61086;BME280;46967;48.876;2.136;2024-03-23T12:16:15;101400.91;;;27.97;15.93
61086;BME280;46967;48.876;2.136;2024-03-23T12:18:43;101396.72;;;27.95;16.09
61086;BME280;46967;48.876;2.136;2024-03-23T12:21:09;101393.69;;;28.91;16.16
61086;BME280;46967;48.876;2.136;2024-03-23T12:23:35;101395.53;;;28.17;16.20
61086;BME280;46967;48.876;2.136;2024-03-23T12:26:00;101400.69;;;27.61;16.58
61086;BME280;46967;48.876;2.136;2024-03-23T12:28:26;101421.25;;;25.03;18.44
61086;BME280;46967;48.876;2.136;2024-03-23T12:30:52;101429.16;;;25.25;19.67
61086;BME280;46967;48.876;2.136;2024-03-23T12:33:18;101408.41;;;26.46;18.32
61086;BME280;46967;48.876;2.136;2024-03-23T12:35:44;101402.81;;;25.01;19.37
61086;BME280;46967;48.876;2.136;2024-03-23T12:38:09;101391.59;;;26.55;18.15
61086;BME280;46967;48.876;2.136;2024-03-23T12:40:34;101385.53;;;27.13;17.55
61086;BME280;46967;48.876;2.136;2024-03-23T12:42:59;101389.59;;;27.66;16.97
61086;BME280;46967;48.876;2.136;2024-03-23T12:45:25;101373.69;;;28.31;16.41
61086;BME280;46967;48.876;2.136;2024-03-23T12:47:50;101368.81;;;28.45;16.13
61086;BME280;46967;48.876;2.136;2024-03-23T12:50:18;101361.53;;;28.19;16.30
61086;BME280;46967;48.876;2.136;2024-03-23T12:52:45;101356.78;;;28.13;15.61
61086;BME280;46967;48.876;2.136;2024-03-23T12:55:11;101350.44;;;29.05;15.67
61086;BME280;46967;48.876;2.136;2024-03-23T12:57:36;101350.94;;;27.03;16.77
61086;BME280;46967;48.876;2.136;2024-03-23T13:00:02;101345.19;;;27.84;15.68
61086;BME280;46967;48.876;2.136;2024-03-23T13:02:28;101355.13;;;27.25;16.14
61086;BME280;46967;48.876;2.136;2024-03-23T13:04:54;101357.38;;;26.40;17.69
61086;BME280;46967;48.876;2.136;2024-03-23T13:07:21;101363.41;;;26.02;20.07
61086;BME280;46967;48.876;2.136;2024-03-23T13:09:50;101352.88;;;25.70;20.23
61086;BME280;46967;48.876;2.136;2024-03-23T13:12:15;101365.91;;;35.37;12.71
61086;BME280;46967;48.876;2.136;2024-03-23T13:14:42;101363.34;;;35.85;11.92
61086;BME280;46967;48.876;2.136;2024-03-23T13:17:07;101349.56;;;38.02;10.62
61086;BME280;46967;48.876;2.136;2024-03-23T13:19:33;101348.50;;;39.06;10.12
61086;BME280;46967;48.876;2.136;2024-03-23T13:22:00;101359.56;;;38.02;10.23
61086;BME280;46967;48.876;2.136;2024-03-23T13:24:26;101353.22;;;38.28;10.33
61086;BME280;46967;48.876;2.136;2024-03-23T13:26:52;101369.16;;;38.43;10.23
61086;BME280;46967;48.876;2.136;2024-03-23T13:29:21;101371.72;;;34.91;12.13
61086;BME280;46967;48.876;2.136;2024-03-23T13:31:47;101373.78;;;36.02;11.82
61086;BME280;46967;48.876;2.136;2024-03-23T13:34:13;101374.25;;;36.12;11.65
61086;BME280;46967;48.876;2.136;2024-03-23T13:36:41;101376.91;;;36.60;11.46
61086;BME280;46967;48.876;2.136;2024-03-23T13:39:06;101371.78;;;37.19;11.42
61086;BME280;46967;48.876;2.136;2024-03-23T13:41:39;101361.91;;;37.92;11.03
61086;BME280;46967;48.876;2.136;2024-03-23T13:44:06;101360.75;;;36.74;11.30
61086;BME280;46967;48.876;2.136;2024-03-23T13:46:32;101349.34;;;37.39;11.21
61086;BME280;46967;48.876;2.136;2024-03-23T13:48:57;101348.28;;;37.40;11.13
61086;BME280;46967;48.876;2.136;2024-03-23T13:51:23;101338.53;;;37.25;11.39
61086;BME280;46967;48.876;2.136;2024-03-23T13:53:50;101323.91;;;38.50;10.58
61086;BME280;46967;48.876;2.136;2024-03-23T13:56:15;101320.44;;;38.93;9.92